createdAt,value
2022-08-22T00:00:36.875Z,100742.56
2022-08-22T00:02:42.244Z,100731.16
2022-08-22T00:02:53.247Z,100720.81
2022-08-22T00:03:06.481Z,100737.88
2022-08-22T00:03:17.374Z,100745.38
2022-08-22T00:05:29.620Z,100740.91
2022-08-22T00:08:11.723Z,100739.34
2022-08-22T00:11:10.587Z,100751.47
2022-08-22T00:13:40.309Z,100753.78
2022-08-22T00:15:53.011Z,100753.78
2022-08-22T00:18:40.504Z,100756.50
2022-08-22T00:20:54.725Z,100756.50
2022-08-22T00:23:20.155Z,100758.88
2022-08-22T00:25:43.745Z,100752.06
2022-08-22T00:28:14.828Z,100754.47
2022-08-22T00:30:17.815Z,100750.88
2022-08-22T00:32:50.939Z,100755.66
2022-08-22T00:35:25.611Z,100758.00
2022-08-22T00:37:39.427Z,100757.94
2022-08-22T00:39:47.135Z,100757.16
2022-08-22T00:42:33.673Z,100759.63
2022-08-22T00:44:55.735Z,100756.03
2022-08-22T00:47:09.605Z,100752.41
2022-08-22T00:49:35.354Z,100747.63
2022-08-22T00:52:18.178Z,100741.13
2022-08-22T00:54:29.432Z,100752.63
2022-08-22T00:56:49.737Z,100767.09
2022-08-22T00:59:24.091Z,100767.16
2022-08-22T01:01:38.117Z,100771.97
2022-08-22T01:03:48.730Z,100766.34
2022-08-22T01:06:11.856Z,100772.69
2022-08-22T01:08:35.255Z,100771.88
2022-08-22T01:11:27.022Z,100779.00
2022-08-22T01:14:03.817Z,100775.78
2022-08-22T01:16:34.853Z,100775.72
2022-08-22T01:18:57.380Z,100782.13
2022-08-22T01:21:31.251Z,100784.56
2022-08-22T01:23:53.506Z,100782.88
2022-08-22T01:26:25.420Z,100780.47
2022-08-22T01:28:54.559Z,100779.31
2022-08-22T01:31:18.703Z,100785.34
2022-08-22T01:33:45.361Z,100778.84
2022-08-22T01:36:08.005Z,100778.84
2022-08-22T01:39:00.018Z,100783.47
2022-08-22T01:41:40.216Z,100782.81
2022-08-22T01:44:28.263Z,100786.00
2022-08-22T01:46:58.520Z,100779.13
2022-08-22T01:49:05.598Z,100783.97
2022-08-22T01:51:49.640Z,100773.97
2022-08-22T01:54:20.923Z,100782.00
2022-08-22T01:56:24.062Z,100788.47
2022-08-22T01:58:30.100Z,100781.63
2022-08-22T02:00:48.974Z,100778.91
2022-08-22T02:03:13.777Z,100781.63
2022-08-22T02:05:49.597Z,100781.50
2022-08-22T02:08:00.603Z,100777.59
2022-08-22T02:10:39.481Z,100772.97
2022-08-22T02:12:43.962Z,100771.94
2022-08-22T02:15:05.623Z,100775.53
2022-08-22T02:17:28.737Z,100773.16
2022-08-22T02:19:47.016Z,100777.94
2022-08-22T02:22:16.443Z,100782.63
2022-08-22T02:24:45.733Z,100777.06
2022-08-22T02:27:07.397Z,100773.91
2022-08-22T02:29:29.642Z,100775.47
2022-08-22T02:31:58.138Z,100777.81
2022-08-22T02:34:02.473Z,100780.25
2022-08-22T02:36:39.819Z,100777.81
2022-08-22T02:39:03.838Z,100779.50
2022-08-22T02:41:32.697Z,100785.78
2022-08-22T02:43:46.445Z,100782.56
2022-08-22T02:46:22.594Z,100767.66
2022-08-22T02:48:39.461Z,100778.94
2022-08-22T02:51:01.024Z,100776.97
2022-08-22T02:53:15.612Z,100775.31
2022-08-22T02:55:55.460Z,100775.63
2022-08-22T02:58:26.792Z,100772.03
2022-08-22T03:00:33.326Z,100767.97
2022-08-22T03:03:06.552Z,100760.81
2022-08-22T03:05:53.110Z,100762.38
2022-08-22T03:08:18.461Z,100758.78
2022-08-22T03:10:27.871Z,100749.97
2022-08-22T03:13:02.482Z,100756.41
2022-08-22T03:15:27.143Z,100752.72
2022-08-22T03:17:39.284Z,100758.38
2022-08-22T03:20:13.447Z,100755.91
2022-08-22T03:22:43.714Z,100759.88
2022-08-22T03:25:18.439Z,100778.34
2022-08-22T03:27:33.046Z,100772.75
2022-08-22T03:29:38.906Z,100790.47
2022-08-22T03:32:05.036Z,100787.69
2022-08-22T03:34:23.744Z,100786.50
2022-08-22T03:36:28.279Z,100783.72
2022-08-22T03:38:53.739Z,100788.88
2022-08-22T03:41:13.150Z,100786.81
2022-08-22T03:43:29.587Z,100794.78
2022-08-22T03:46:05.165Z,100789.97
2022-08-22T03:48:43.571Z,100794.19
2022-08-22T03:51:10.155Z,100799.47
2022-08-22T03:53:49.562Z,100794.78
2022-08-22T03:56:32.766Z,100792.03
2022-08-22T03:59:34.462Z,100790.41
2022-08-22T04:01:43.202Z,100798.88
2022-08-22T04:04:13.424Z,100799.38
2022-08-22T04:06:42.885Z,100801.84
2022-08-22T04:09:37.061Z,100808.00
2022-08-22T04:12:08.144Z,100814.50
2022-08-22T04:14:39.761Z,100814.97
2022-08-22T04:17:27.781Z,100817.09
2022-08-22T04:19:49.881Z,100822.81
2022-08-22T04:22:22.833Z,100824.44
2022-08-22T04:24:43.077Z,100828.06
2022-08-22T04:27:06.296Z,100833.34
2022-08-22T04:29:28.849Z,100832.16
2022-08-22T04:31:35.041Z,100830.97
2022-08-22T04:34:08.688Z,100834.28
2022-08-22T04:36:39.946Z,100825.81
2022-08-22T04:38:53.896Z,100820.72
2022-08-22T04:41:22.130Z,100821.94
2022-08-22T04:43:48.051Z,100819.97
2022-08-22T04:45:49.935Z,100818.81
2022-08-22T04:48:00.173Z,100817.72
2022-08-22T04:50:21.651Z,100813.69
2022-08-22T04:52:35.406Z,100815.34
2022-08-22T04:55:08.023Z,100807.75
2022-08-22T04:58:00.254Z,100818.94
2022-08-22T05:00:06.958Z,100825.03
2022-08-22T05:02:11.750Z,100820.31
2022-08-22T05:04:20.617Z,100828.28
2022-08-22T05:06:26.589Z,100832.34
2022-08-22T05:08:31.940Z,100830.34
2022-08-22T05:10:38.727Z,100822.38
2022-08-22T05:12:43.563Z,100823.25
2022-08-22T05:14:54.479Z,100827.22
2022-08-22T05:16:56.744Z,100830.09
2022-08-22T05:19:07.631Z,100825.28
2022-08-22T05:21:09.685Z,100826.91
2022-08-22T05:23:23.279Z,100826.97
2022-08-22T05:25:29.441Z,100826.97
2022-08-22T05:27:35.511Z,100825.78
2022-08-22T05:29:39.125Z,100832.59
2022-08-22T05:31:47.132Z,100831.00
2022-08-22T05:33:51.988Z,100825.84
2022-08-22T05:36:03.878Z,100829.06
2022-08-22T05:38:08.034Z,100838.66
2022-08-22T05:40:19.899Z,100836.34
2022-08-22T05:42:27.301Z,100836.34
2022-08-22T05:44:34.805Z,100843.59
2022-08-22T05:46:45.608Z,100838.44
2022-08-22T05:48:59.975Z,100843.66
2022-08-22T05:51:15.102Z,100841.31
2022-08-22T05:53:41.633Z,100843.81
2022-08-22T05:55:59.766Z,100845.91
2022-08-22T05:58:13.998Z,100844.81
2022-08-22T06:00:21.688Z,100846.09
2022-08-22T06:03:00.193Z,100840.47
2022-08-22T06:05:02.599Z,100838.09
2022-08-22T06:07:27.524Z,100840.91
2022-08-22T06:09:47.729Z,100835.75
2022-08-22T06:12:21.686Z,100842.28
2022-08-22T06:15:12.029Z,100831.19
2022-08-22T06:17:19.065Z,100830.06
2022-08-22T06:19:21.125Z,100829.31
2022-08-22T06:21:39.700Z,100835.34
2022-08-22T06:23:46.725Z,100831.81
2022-08-22T06:25:48.756Z,100836.72
2022-08-22T06:27:50.870Z,100828.34
2022-08-22T06:29:57.930Z,100832.81
2022-08-22T06:32:02.451Z,100838.94
2022-08-22T06:34:11.067Z,100845.41
2022-08-22T06:36:31.701Z,100843.44
2022-08-22T06:38:56.390Z,100845.47
2022-08-22T06:40:58.564Z,100849.47
2022-08-22T06:43:00.604Z,100850.31
2022-08-22T06:45:26.661Z,100849.50
2022-08-22T06:47:33.934Z,100846.41
2022-08-22T06:49:36.830Z,100849.25
2022-08-22T06:51:38.855Z,100859.66
2022-08-22T06:53:48.367Z,100855.63
2022-08-22T06:55:56.824Z,100853.28
2022-08-22T06:58:14.815Z,100856.22
2022-08-22T07:00:17.289Z,100858.25
2022-08-22T07:02:40.931Z,100861.09
2022-08-22T07:04:42.900Z,100862.38
2022-08-22T07:06:50.482Z,100855.59
2022-08-22T07:08:55.874Z,100852.44
2022-08-22T07:11:16.409Z,100848.06
2022-08-22T07:13:19.513Z,100849.72
2022-08-22T07:15:37.141Z,100851.06
2022-08-22T07:17:47.657Z,100850.59
2022-08-22T07:20:41.952Z,100855.81
2022-08-22T07:22:58.022Z,100854.28
2022-08-22T07:25:09.098Z,100852.75
2022-08-22T07:27:49.216Z,100857.22
2022-08-22T07:30:10.115Z,100861.69
2022-08-22T07:32:19.352Z,100860.47
2022-08-22T07:35:06.652Z,100864.94
2022-08-22T07:37:27.088Z,100866.19
2022-08-22T07:39:36.062Z,100860.56
2022-08-22T07:42:11.337Z,100863.41
2022-08-22T07:44:15.362Z,100867.44
2022-08-22T07:47:00.979Z,100865.44
2022-08-22T07:49:24.439Z,100863.47
2022-08-22T07:51:41.268Z,100874.31
2022-08-22T07:53:50.290Z,100872.72
2022-08-22T07:55:53.991Z,100859.84
2022-08-22T07:58:03.931Z,100865.06
2022-08-22T08:00:19.889Z,100865.09
2022-08-22T08:02:22.322Z,100855.88
2022-08-22T08:04:29.246Z,100865.97
2022-08-22T08:06:32.485Z,100860.75
2022-08-22T08:08:43.523Z,100857.09
2022-08-22T08:10:45.547Z,100849.06
2022-08-22T08:12:54.135Z,100856.28
2022-08-22T08:15:08.152Z,100859.53
2022-08-22T08:17:30.140Z,100860.34
2022-08-22T08:19:35.993Z,100854.72
2022-08-22T08:21:49.894Z,100855.50
2022-08-22T08:23:51.932Z,100866.00
2022-08-22T08:26:25.396Z,100859.56
2022-08-22T08:28:37.707Z,100858.31
2022-08-22T08:30:43.273Z,100868.34
2022-08-22T08:32:57.358Z,100862.72
2022-08-22T08:35:28.058Z,100865.50
2022-08-22T08:37:45.168Z,100872.34
2022-08-22T08:39:50.806Z,100868.31
2022-08-22T08:43:11.098Z,100865.13
2022-08-22T08:45:28.869Z,100869.50
2022-08-22T08:47:49.889Z,100866.28
2022-08-22T08:50:17.335Z,100866.72
2022-08-22T08:52:37.120Z,100868.28
2022-08-22T08:55:22.055Z,100865.47
2022-08-22T08:58:21.102Z,100869.47
2022-08-22T09:00:41.793Z,100877.13
2022-08-22T09:02:50.375Z,100869.91
2022-08-22T09:05:20.080Z,100871.09
2022-08-22T09:07:44.121Z,100864.22
2022-08-22T09:10:32.341Z,100877.88
2022-08-22T09:13:34.558Z,100875.84
2022-08-22T09:16:18.848Z,100872.69
2022-08-22T09:18:59.412Z,100875.13
2022-08-22T09:21:32.246Z,100877.94
2022-08-22T09:24:20.857Z,100881.16
2022-08-22T09:26:49.684Z,100881.94
2022-08-22T09:29:02.254Z,100880.66
2022-08-22T09:31:44.744Z,100896.72
2022-08-22T09:34:23.971Z,100894.25
2022-08-22T09:36:48.618Z,100905.38
2022-08-22T09:39:28.832Z,100905.16
2022-08-22T09:41:54.234Z,100908.41
2022-08-22T09:44:28.512Z,100899.13
2022-08-22T09:46:57.362Z,100901.50
2022-08-22T09:49:08.548Z,100898.97
2022-08-22T09:51:31.437Z,100894.22
2022-08-22T09:53:59.876Z,100896.66
2022-08-22T09:56:15.724Z,100898.34
2022-08-22T09:58:44.826Z,100898.31
2022-08-22T10:00:57.072Z,100892.78
2022-08-22T10:03:23.042Z,100896.03
2022-08-22T10:05:47.443Z,100901.25
2022-08-22T10:08:26.272Z,100905.97
2022-08-22T10:10:56.725Z,100901.94
2022-08-22T10:13:41.085Z,100895.56
2022-08-22T10:16:10.418Z,100896.28
2022-08-22T10:19:00.882Z,100902.34
2022-08-22T10:21:12.325Z,100908.31
2022-08-22T10:23:45.893Z,100910.66
2022-08-22T10:25:59.354Z,100903.53
2022-08-22T10:28:39.556Z,100901.88
2022-08-22T10:31:05.981Z,100901.53
2022-08-22T10:33:37.869Z,100902.03
2022-08-22T10:35:50.757Z,100897.63
2022-08-22T10:38:03.914Z,100900.47
2022-08-22T10:40:14.803Z,100900.88
2022-08-22T10:42:27.983Z,100904.91
2022-08-22T10:44:43.933Z,100900.91
2022-08-22T10:46:56.143Z,100896.16
2022-08-22T10:49:05.897Z,100898.22
2022-08-22T10:51:37.729Z,100893.06
2022-08-22T10:54:07.038Z,100892.31
2022-08-22T10:56:21.480Z,100891.13
2022-08-22T10:58:28.553Z,100888.38
2022-08-22T11:00:55.532Z,100881.16
2022-08-22T11:03:25.149Z,100886.44
2022-08-22T11:05:31.735Z,100883.22
2022-08-22T11:07:48.668Z,100880.88
2022-08-22T11:09:57.776Z,100887.31
2022-08-22T11:12:23.951Z,100889.41
2022-08-22T11:14:42.317Z,100883.00
2022-08-22T11:16:58.924Z,100889.09
2022-08-22T11:19:42.781Z,100889.16
2022-08-22T11:22:01.288Z,100896.81
2022-08-22T11:24:55.777Z,100883.56
2022-08-22T11:27:04.446Z,100893.66
2022-08-22T11:29:26.478Z,100888.06
2022-08-22T11:31:47.313Z,100884.47
2022-08-22T11:34:11.006Z,100888.94
2022-08-22T11:36:54.667Z,100893.75
2022-08-22T11:39:25.898Z,100893.00
2022-08-22T11:41:45.042Z,100884.13
2022-08-22T11:44:08.964Z,100887.34
2022-08-22T11:46:39.471Z,100882.16
2022-08-22T11:48:59.814Z,100881.75
2022-08-22T11:51:37.927Z,100881.34
2022-08-22T11:53:50.648Z,100883.81
2022-08-22T11:56:41.568Z,100876.97
2022-08-22T11:58:52.591Z,100881.03
2022-08-22T12:01:21.709Z,100877.78
2022-08-22T12:03:34.309Z,100874.19
2022-08-22T12:05:47.636Z,100877.00
2022-08-22T12:08:21.156Z,100871.34
2022-08-22T12:10:31.320Z,100874.97
2022-08-22T12:13:01.259Z,100872.94
2022-08-22T12:15:36.396Z,100877.81
2022-08-22T12:18:10.538Z,100878.19
2022-08-22T12:20:40.820Z,100866.91
2022-08-22T12:23:15.009Z,100880.59
2022-08-22T12:25:44.773Z,100882.59
2022-08-22T12:27:58.558Z,100868.47
2022-08-22T12:30:16.244Z,100873.28
2022-08-22T12:32:58.125Z,100875.28
2022-08-22T12:35:42.027Z,100872.47
2022-08-22T12:38:29.201Z,100882.97
2022-08-22T12:41:28.010Z,100879.34
2022-08-22T12:44:08.599Z,100878.56
2022-08-22T12:46:47.244Z,100881.78
2022-08-22T12:48:55.251Z,100882.56
2022-08-22T12:51:22.700Z,100876.56
2022-08-22T12:54:09.904Z,100874.50
2022-08-22T12:56:30.541Z,100871.69
2022-08-22T12:59:03.495Z,100861.16
2022-08-22T13:01:07.619Z,100862.34
2022-08-22T13:03:22.102Z,100859.06
2022-08-22T13:05:26.941Z,100856.63
2022-08-22T13:07:35.237Z,100860.66
2022-08-22T13:09:39.784Z,100860.16
2022-08-22T13:11:42.089Z,100849.66
2022-08-22T13:13:56.586Z,100846.75
2022-08-22T13:16:15.581Z,100857.91
2022-08-22T13:18:30.673Z,100859.81
2022-08-22T13:20:43.399Z,100860.38
2022-08-22T13:22:45.880Z,100865.47
2022-08-22T13:24:55.201Z,100863.44
2022-08-22T13:27:05.750Z,100858.22
2022-08-22T13:29:42.970Z,100848.53
2022-08-22T13:31:45.075Z,100857.09
2022-08-22T13:33:51.505Z,100849.00
2022-08-22T13:35:55.933Z,100841.50
2022-08-22T13:38:12.074Z,100848.78
2022-08-22T13:40:22.317Z,100844.81
2022-08-22T13:42:29.897Z,100840.13
2022-08-22T13:44:45.316Z,100837.09
2022-08-22T13:47:12.862Z,100832.50
2022-08-22T13:49:12.598Z,100834.50
2022-08-22T13:51:21.330Z,100831.75
2022-08-22T13:53:49.756Z,100838.47
2022-08-22T13:56:17.840Z,100835.16
2022-08-22T13:58:42.123Z,100842.38
2022-08-22T14:01:18.946Z,100834.78
2022-08-22T14:03:28.918Z,100831.00
2022-08-22T14:05:36.424Z,100832.59
2022-08-22T14:08:27.917Z,100825.25
2022-08-22T14:10:31.622Z,100820.84
2022-08-22T14:12:56.855Z,100823.16
2022-08-22T14:15:05.266Z,100824.75
2022-08-22T14:17:07.322Z,100827.25
2022-08-22T14:19:12.954Z,100816.09
2022-08-22T14:21:45.579Z,100817.88
2022-08-22T14:23:55.156Z,100824.84
2022-08-22T14:25:57.341Z,100823.47
2022-08-22T14:28:03.182Z,100817.66
2022-08-22T14:30:11.511Z,100821.84
2022-08-22T14:32:19.364Z,100825.66
2022-08-22T14:34:25.397Z,100816.06
2022-08-22T14:37:00.288Z,100815.44
2022-08-22T14:39:22.347Z,100811.63
2022-08-22T14:41:52.555Z,100817.59
2022-08-22T14:44:07.672Z,100815.03
2022-08-22T14:46:14.333Z,100815.19
2022-08-22T14:48:32.597Z,100815.03
2022-08-22T14:50:43.602Z,100817.00
2022-08-22T14:52:48.506Z,100812.00
2022-08-22T14:55:12.007Z,100812.38
2022-08-22T14:57:20.280Z,100808.34
2022-08-22T14:59:47.100Z,100808.44
2022-08-22T15:02:06.924Z,100807.72
2022-08-22T15:04:11.376Z,100817.22
2022-08-22T15:06:38.351Z,100812.41
2022-08-22T15:08:50.197Z,100805.47
2022-08-22T15:11:17.663Z,100803.09
2022-08-22T15:13:25.215Z,100807.31
2022-08-22T15:16:05.678Z,100808.50
2022-08-22T15:18:28.415Z,100809.03
2022-08-22T15:20:36.320Z,100806.38
2022-08-22T15:22:47.355Z,100806.13
2022-08-22T15:25:13.684Z,100805.09
2022-08-22T15:27:19.486Z,100809.31
2022-08-22T15:29:26.581Z,100804.22
2022-08-22T15:31:28.575Z,100804.50
2022-08-22T15:33:34.585Z,100802.63
2022-08-22T15:35:38.900Z,100800.91
2022-08-22T15:38:04.873Z,100805.50
2022-08-22T15:40:29.573Z,100798.38
2022-08-22T15:42:37.075Z,100792.41
2022-08-22T15:44:40.509Z,100801.25
2022-08-22T15:46:52.252Z,100798.47
2022-08-22T15:49:13.221Z,100799.19
2022-08-22T15:51:15.472Z,100796.00
2022-08-22T15:53:43.182Z,100792.16
2022-08-22T15:56:15.411Z,100795.69
2022-08-22T15:58:24.375Z,100799.59
2022-08-22T16:00:59.699Z,100795.88
2022-08-22T16:03:05.373Z,100803.06
2022-08-22T16:05:10.655Z,100798.13
2022-08-22T16:07:35.273Z,100795.13
2022-08-22T16:09:43.567Z,100803.06
2022-08-22T16:11:52.833Z,100812.44
2022-08-22T16:14:24.936Z,100804.00
2022-08-22T16:16:26.806Z,100798.88
2022-08-22T16:18:35.333Z,100802.25
2022-08-22T16:20:37.163Z,100806.34
2022-08-22T16:22:57.447Z,100797.03
2022-08-22T16:25:02.390Z,100791.94
2022-08-22T16:27:36.652Z,100791.63
2022-08-22T16:29:41.449Z,100791.91
2022-08-22T16:31:46.725Z,100800.16
2022-08-22T16:33:48.777Z,100799.41
2022-08-22T16:36:37.503Z,100802.50
2022-08-22T16:38:43.376Z,100803.94
2022-08-22T16:40:46.303Z,100802.75
2022-08-22T16:43:09.726Z,100792.00
2022-08-22T16:45:11.681Z,100812.25
2022-08-22T16:47:22.950Z,100809.50
2022-08-22T16:49:29.740Z,100812.09
2022-08-22T16:51:31.933Z,100813.44
2022-08-22T16:53:45.958Z,100806.09
2022-08-22T16:55:55.456Z,100809.78
2022-08-22T16:58:44.716Z,100813.13
2022-08-22T17:01:22.794Z,100818.41
2022-08-22T17:03:55.458Z,100817.75
2022-08-22T17:06:20.522Z,100825.00
2022-08-22T17:08:32.303Z,100816.19
2022-08-22T17:10:52.537Z,100824.72
2022-08-22T17:13:26.388Z,100839.69
2022-08-22T17:15:34.280Z,100840.13
2022-08-22T17:18:11.529Z,100840.97
2022-08-22T17:20:44.244Z,100839.78
2022-08-22T17:23:02.619Z,100842.63
2022-08-22T17:25:34.942Z,100845.06
2022-08-22T17:27:43.064Z,100839.84
2022-08-22T17:30:10.224Z,100847.13
2022-08-22T17:32:45.819Z,100863.69
2022-08-22T17:35:09.566Z,100851.59
2022-08-22T17:37:44.041Z,100854.84
2022-08-22T17:40:09.298Z,100860.03
2022-08-22T17:42:35.536Z,100854.44
2022-08-22T17:45:04.125Z,100852.00
2022-08-22T17:47:16.982Z,100843.16
2022-08-22T17:49:21.834Z,100858.47
2022-08-22T17:52:16.036Z,100854.03
2022-08-22T17:54:50.559Z,100860.47
2022-08-22T17:57:11.497Z,100856.81
2022-08-22T17:59:21.003Z,100859.66
2022-08-22T18:01:41.403Z,100861.25
2022-08-22T18:03:57.236Z,100860.81
2022-08-22T18:06:23.294Z,100864.44
2022-08-22T18:09:13.498Z,100864.00
2022-08-22T18:11:40.650Z,100864.00
2022-08-22T18:14:20.699Z,100865.19
2022-08-22T18:16:37.692Z,100868.41
2022-08-22T18:18:50.301Z,100865.19
2022-08-22T18:21:06.577Z,100874.38
2022-08-22T18:23:39.269Z,100867.53
2022-08-22T18:25:45.902Z,100878.78
2022-08-22T18:27:53.953Z,100878.78
2022-08-22T18:30:02.586Z,100875.94
2022-08-22T18:32:29.292Z,100887.22
2022-08-22T18:34:49.269Z,100881.97
2022-08-22T18:37:07.477Z,100889.22
2022-08-22T18:39:21.445Z,100895.66
2022-08-22T18:41:36.684Z,100889.16
2022-08-22T18:43:48.281Z,100894.81
2022-08-22T18:45:50.367Z,100900.81
2022-08-22T18:47:55.331Z,100898.38
2022-08-22T18:49:58.020Z,100903.22
2022-08-22T18:52:06.777Z,100895.44
2022-08-22T18:54:08.611Z,100899.09
2022-08-22T18:56:31.299Z,100905.84
2022-08-22T18:58:42.341Z,100901.81
2022-08-22T19:01:02.211Z,100899.03
2022-08-22T19:03:42.684Z,100897.75
2022-08-22T19:06:28.420Z,100898.94
2022-08-22T19:08:56.200Z,100910.97
2022-08-22T19:11:37.170Z,100900.50
2022-08-22T19:14:10.470Z,100900.09
2022-08-22T19:17:15.596Z,100895.25
2022-08-22T19:20:20.173Z,100906.81
2022-08-22T19:22:29.619Z,100909.97
2022-08-22T19:24:57.223Z,100904.75
2022-08-22T19:27:11.231Z,100908.31
2022-08-22T19:29:18.597Z,100900.19
2022-08-22T19:31:35.767Z,100900.56
2022-08-22T19:33:41.730Z,100898.97
2022-08-22T19:36:06.300Z,100892.91
2022-08-22T19:38:09.046Z,100899.22
2022-08-22T19:40:11.466Z,100898.31
2022-08-22T19:42:19.891Z,100904.78
2022-08-22T19:44:21.792Z,100905.19
2022-08-22T19:46:23.823Z,100891.97
2022-08-22T19:48:33.809Z,100897.59
2022-08-22T19:50:36.814Z,100890.34
2022-08-22T19:53:07.995Z,100897.13
2022-08-22T19:55:37.412Z,100895.09
2022-08-22T19:57:54.011Z,100899.09
2022-08-22T20:00:11.317Z,100894.22
2022-08-22T20:02:16.436Z,100895.38
2022-08-22T20:05:16.634Z,100890.09
2022-08-22T20:07:56.571Z,100898.94
2022-08-22T20:10:55.935Z,100898.13
2022-08-22T20:13:12.006Z,100898.94
2022-08-22T20:15:25.173Z,100889.25
2022-08-22T20:17:27.054Z,100901.25
2022-08-22T20:22:21.424Z,100887.56
2022-08-22T20:24:41.379Z,100881.13
2022-08-22T20:27:10.011Z,100884.72
2022-08-22T20:29:08.035Z,100879.09
2022-08-22T20:31:13.032Z,100879.06
2022-08-22T20:33:41.922Z,100865.78
2022-08-22T20:35:57.092Z,100872.16
2022-08-22T20:38:07.069Z,100879.44
2022-08-22T20:41:00.618Z,100870.22
2022-08-22T20:43:11.300Z,100867.41
2022-08-22T20:45:15.941Z,100872.22
2022-08-22T20:47:25.846Z,100871.78
2022-08-22T20:49:42.145Z,100881.00
2022-08-22T20:51:59.893Z,100883.34
2022-08-22T20:54:15.708Z,100872.13
2022-08-22T20:56:30.969Z,100874.94
2022-08-22T20:58:40.079Z,100860.06
2022-08-22T21:00:47.583Z,100863.69
2022-08-22T21:03:01.131Z,100857.66
2022-08-22T21:05:18.460Z,100857.28
2022-08-22T21:07:35.685Z,100856.81
2022-08-22T21:09:56.447Z,100855.53
2022-08-22T21:11:59.856Z,100857.41
2022-08-22T21:14:01.863Z,100859.81
2022-08-22T21:16:13.835Z,100855.34
2022-08-22T21:18:30.403Z,100868.63
2022-08-22T21:20:35.934Z,100861.00
2022-08-22T21:22:37.967Z,100864.56
2022-08-22T21:24:39.992Z,100855.69
2022-08-22T21:26:57.296Z,100857.31
2022-08-22T21:29:01.287Z,100862.88
2022-08-22T21:31:22.264Z,100855.63
2022-08-22T21:33:25.417Z,100851.19
2022-08-22T21:35:32.546Z,100853.53
2022-08-22T21:37:45.110Z,100847.50
2022-08-22T21:39:51.130Z,100854.72
2022-08-22T21:42:02.299Z,100851.44
2022-08-22T21:44:42.179Z,100845.81
2022-08-22T21:46:44.222Z,100852.22
2022-08-22T21:49:04.419Z,100851.81
2022-08-22T21:51:39.563Z,100858.56
2022-08-22T21:53:41.566Z,100860.06
2022-08-22T21:55:44.649Z,100846.84
2022-08-22T21:57:46.698Z,100857.25
2022-08-22T21:59:59.778Z,100858.88
2022-08-22T22:02:31.235Z,100847.66
2022-08-22T22:04:36.130Z,100848.84
2022-08-22T22:06:39.194Z,100843.63
2022-08-22T22:08:41.238Z,100839.28
2022-08-22T22:10:44.594Z,100839.28
2022-08-22T22:12:47.678Z,100836.13
2022-08-22T22:14:49.809Z,100829.19
2022-08-22T22:16:51.819Z,100838.94
2022-08-22T22:18:53.898Z,100844.09
2022-08-22T22:20:56.386Z,100841.63
2022-08-22T22:22:58.931Z,100838.06
2022-08-22T22:25:00.919Z,100830.06
2022-08-22T22:27:03.077Z,100828.03
2022-08-22T22:29:05.097Z,100829.69
2022-08-22T22:31:07.362Z,100817.22
2022-08-22T22:33:09.814Z,100833.69
2022-08-22T22:35:13.694Z,100818.84
2022-08-22T22:37:15.871Z,100817.56
2022-08-22T22:39:17.865Z,100815.22
2022-08-22T22:41:21.289Z,100823.28
2022-08-22T22:43:23.332Z,100814.81
2022-08-22T22:45:25.380Z,100815.22
2022-08-22T22:47:30.943Z,100816.84
2022-08-22T22:49:33.093Z,100812.75
2022-08-22T22:51:35.119Z,100816.81
2022-08-22T22:53:40.484Z,100826.84
2022-08-22T22:55:44.854Z,100820.84
2022-08-22T22:57:46.877Z,100826.44
2022-08-22T22:59:48.884Z,100823.28
2022-08-22T23:02:05.501Z,100813.63
2022-08-22T23:04:07.492Z,100803.13
2022-08-22T23:06:16.534Z,100796.69
2022-08-22T23:08:18.543Z,100804.69
2022-08-22T23:10:22.175Z,100799.81
2022-08-22T23:12:25.180Z,100791.44
2022-08-22T23:14:27.206Z,100794.22
2022-08-22T23:16:31.964Z,100789.81
2022-08-22T23:18:37.266Z,100801.41
2022-08-22T23:20:39.261Z,100804.19
2022-08-22T23:22:42.988Z,100798.13
2022-08-22T23:24:45.151Z,100786.13
2022-08-22T23:26:47.157Z,100792.63
2022-08-22T23:28:49.246Z,100792.56
2022-08-22T23:30:51.272Z,100786.56
2022-08-22T23:32:53.736Z,100788.94
2022-08-22T23:34:56.256Z,100788.59
2022-08-22T23:37:00.855Z,100786.94
2022-08-22T23:39:04.737Z,100780.16
2022-08-22T23:41:09.944Z,100789.41
2022-08-22T23:43:12.134Z,100783.00
2022-08-22T23:45:14.514Z,100788.22
2022-08-22T23:47:16.616Z,100781.03
2022-08-22T23:49:18.775Z,100777.88
2022-08-22T23:51:23.372Z,100773.09
2022-08-22T23:53:25.445Z,100779.91
2022-08-22T23:55:27.432Z,100780.75
2022-08-22T23:57:29.596Z,100777.97
2022-08-22T23:59:34.054Z,100774.41
